sensor_id;sensor_type;location;lat;lon;timestamp;P1;durP1;ratioP1;P2;durP2;ratioP2
54157;SDS011;40065;49.894;10.358;2023-07-29T00:04:06;5.00;;;3.72;;
54157;SDS011;40065;49.894;10.358;2023-07-29T00:14:12;9.15;;;3.92;;
54157;SDS011;40065;49.894;10.358;2023-07-29T00:19:13;4.90;;;4.00;;
54157;SDS011;40065;49.894;10.358;2023-07-29T00:24:15;4.97;;;4.30;;
54157;SDS011;40065;49.894;10.358;2023-07-29T00:29:17;7.68;;;5.85;;
54157;SDS011;40065;49.894;10.358;2023-07-29T00:34:19;7.97;;;7.05;;
54157;SDS011;40065;49.894;10.358;2023-07-29T00:39:21;8.30;;;6.63;;
54157;SDS011;40065;49.894;10.358;2023-07-29T00:44:24;9.52;;;7.80;;
54157;SDS011;40065;49.894;10.358;2023-07-29T00:49:26;11.00;;;8.27;;
54157;SDS011;40065;49.894;10.358;2023-07-29T00:54:28;10.35;;;9.02;;
54157;SDS011;40065;49.894;10.358;2023-07-29T00:59:31;10.68;;;9.25;;
54157;SDS011;40065;49.894;10.358;2023-07-29T01:04:33;15.00;;;9.48;;
54157;SDS011;40065;49.894;10.358;2023-07-29T01:09:48;13.05;;;9.68;;
54157;SDS011;40065;49.894;10.358;2023-07-29T01:20:22;11.30;;;9.15;;
54157;SDS011;40065;49.894;10.358;2023-07-29T01:25:25;11.88;;;9.45;;
54157;SDS011;40065;49.894;10.358;2023-07-29T01:30:30;14.18;;;9.95;;
54157;SDS011;40065;49.894;10.358;2023-07-29T01:35:43;16.35;;;10.13;;
54157;SDS011;40065;49.894;10.358;2023-07-29T01:40:49;12.75;;;8.75;;
54157;SDS011;40065;49.894;10.358;2023-07-29T01:45:53;13.30;;;9.25;;
54157;SDS011;40065;49.894;10.358;2023-07-29T01:50:56;12.65;;;8.65;;
54157;SDS011;40065;49.894;10.358;2023-07-29T01:55:58;10.27;;;7.28;;
54157;SDS011;40065;49.894;10.358;2023-07-29T02:01:00;7.68;;;6.10;;
54157;SDS011;40065;49.894;10.358;2023-07-29T02:06:02;11.10;;;7.65;;
54157;SDS011;40065;49.894;10.358;2023-07-29T02:11:04;8.70;;;6.47;;
54157;SDS011;40065;49.894;10.358;2023-07-29T02:16:06;9.43;;;6.95;;
54157;SDS011;40065;49.894;10.358;2023-07-29T02:21:08;7.82;;;5.20;;
54157;SDS011;40065;49.894;10.358;2023-07-29T02:26:10;7.82;;;5.13;;
54157;SDS011;40065;49.894;10.358;2023-07-29T02:31:16;5.75;;;4.43;;
54157;SDS011;40065;49.894;10.358;2023-07-29T02:36:21;5.13;;;4.07;;
54157;SDS011;40065;49.894;10.358;2023-07-29T02:41:23;7.07;;;4.60;;
54157;SDS011;40065;49.894;10.358;2023-07-29T02:46:25;5.82;;;4.22;;
54157;SDS011;40065;49.894;10.358;2023-07-29T02:51:27;4.68;;;3.50;;
54157;SDS011;40065;49.894;10.358;2023-07-29T02:56:29;4.43;;;3.83;;
54157;SDS011;40065;49.894;10.358;2023-07-29T03:01:32;5.05;;;4.20;;
54157;SDS011;40065;49.894;10.358;2023-07-29T03:06:33;5.95;;;4.40;;
54157;SDS011;40065;49.894;10.358;2023-07-29T03:11:36;6.45;;;4.70;;
54157;SDS011;40065;49.894;10.358;2023-07-29T03:16:38;5.78;;;4.00;;
54157;SDS011;40065;49.894;10.358;2023-07-29T03:21:40;4.10;;;3.50;;
54157;SDS011;40065;49.894;10.358;2023-07-29T03:26:42;4.82;;;3.50;;
54157;SDS011;40065;49.894;10.358;2023-07-29T03:31:47;4.60;;;3.40;;
54157;SDS011;40065;49.894;10.358;2023-07-29T03:36:49;3.80;;;3.00;;
54157;SDS011;40065;49.894;10.358;2023-07-29T03:41:52;5.38;;;2.97;;
54157;SDS011;40065;49.894;10.358;2023-07-29T03:46:54;4.03;;;2.65;;
54157;SDS011;40065;49.894;10.358;2023-07-29T03:51:55;3.92;;;2.85;;
54157;SDS011;40065;49.894;10.358;2023-07-29T03:56:57;6.03;;;3.13;;
54157;SDS011;40065;49.894;10.358;2023-07-29T04:01:59;4.68;;;2.80;;
54157;SDS011;40065;49.894;10.358;2023-07-29T04:07:01;7.35;;;3.03;;
54157;SDS011;40065;49.894;10.358;2023-07-29T04:12:03;5.00;;;3.45;;
54157;SDS011;40065;49.894;10.358;2023-07-29T04:17:07;7.47;;;3.42;;
54157;SDS011;40065;49.894;10.358;2023-07-29T04:22:09;4.50;;;2.67;;
54157;SDS011;40065;49.894;10.358;2023-07-29T04:27:11;5.45;;;3.33;;
54157;SDS011;40065;49.894;10.358;2023-07-29T04:32:13;5.78;;;2.97;;
54157;SDS011;40065;49.894;10.358;2023-07-29T04:37:16;4.22;;;2.72;;
54157;SDS011;40065;49.894;10.358;2023-07-29T04:42:18;4.93;;;3.05;;
54157;SDS011;40065;49.894;10.358;2023-07-29T04:47:20;4.28;;;3.00;;
54157;SDS011;40065;49.894;10.358;2023-07-29T04:52:22;4.53;;;2.45;;
54157;SDS011;40065;49.894;10.358;2023-07-29T04:57:23;5.35;;;2.00;;
54157;SDS011;40065;49.894;10.358;2023-07-29T05:02:25;2.80;;;2.05;;
54157;SDS011;40065;49.894;10.358;2023-07-29T05:07:28;3.45;;;1.40;;
54157;SDS011;40065;49.894;10.358;2023-07-29T05:12:30;2.83;;;1.60;;
54157;SDS011;40065;49.894;10.358;2023-07-29T05:17:34;3.17;;;1.80;;
54157;SDS011;40065;49.894;10.358;2023-07-29T05:22:35;3.08;;;1.83;;
54157;SDS011;40065;49.894;10.358;2023-07-29T05:27:38;3.08;;;1.80;;
54157;SDS011;40065;49.894;10.358;2023-07-29T05:32:39;3.28;;;2.30;;
54157;SDS011;40065;49.894;10.358;2023-07-29T05:37:41;4.60;;;2.15;;
54157;SDS011;40065;49.894;10.358;2023-07-29T05:42:43;2.85;;;1.80;;
54157;SDS011;40065;49.894;10.358;2023-07-29T05:47:46;3.95;;;1.88;;
54157;SDS011;40065;49.894;10.358;2023-07-29T05:52:48;3.42;;;1.42;;
54157;SDS011;40065;49.894;10.358;2023-07-29T05:57:50;2.58;;;1.80;;
54157;SDS011;40065;49.894;10.358;2023-07-29T06:02:53;3.88;;;1.85;;
54157;SDS011;40065;49.894;10.358;2023-07-29T06:07:56;4.97;;;1.85;;
54157;SDS011;40065;49.894;10.358;2023-07-29T06:12:58;3.55;;;1.58;;
54157;SDS011;40065;49.894;10.358;2023-07-29T06:18:00;4.00;;;1.70;;
54157;SDS011;40065;49.894;10.358;2023-07-29T06:23:02;2.60;;;1.88;;
54157;SDS011;40065;49.894;10.358;2023-07-29T06:28:04;3.78;;;1.73;;
54157;SDS011;40065;49.894;10.358;2023-07-29T06:33:06;2.92;;;1.98;;
54157;SDS011;40065;49.894;10.358;2023-07-29T06:38:08;3.25;;;1.90;;
54157;SDS011;40065;49.894;10.358;2023-07-29T06:43:10;4.63;;;2.58;;
54157;SDS011;40065;49.894;10.358;2023-07-29T06:48:13;4.97;;;2.60;;
54157;SDS011;40065;49.894;10.358;2023-07-29T06:53:16;2.70;;;1.95;;
54157;SDS011;40065;49.894;10.358;2023-07-29T06:58:18;6.00;;;2.35;;
54157;SDS011;40065;49.894;10.358;2023-07-29T07:03:20;3.20;;;1.88;;
54157;SDS011;40065;49.894;10.358;2023-07-29T07:08:22;5.32;;;1.77;;
54157;SDS011;40065;49.894;10.358;2023-07-29T07:13:24;2.35;;;1.55;;
54157;SDS011;40065;49.894;10.358;2023-07-29T07:18:26;1.75;;;1.30;;
54157;SDS011;40065;49.894;10.358;2023-07-29T07:23:28;3.97;;;1.70;;
54157;SDS011;40065;49.894;10.358;2023-07-29T07:28:30;2.83;;;1.50;;
54157;SDS011;40065;49.894;10.358;2023-07-29T07:33:32;3.38;;;1.63;;
54157;SDS011;40065;49.894;10.358;2023-07-29T07:38:34;2.60;;;1.65;;
54157;SDS011;40065;49.894;10.358;2023-07-29T07:43:36;3.10;;;1.75;;
54157;SDS011;40065;49.894;10.358;2023-07-29T07:48:38;3.47;;;1.70;;
54157;SDS011;40065;49.894;10.358;2023-07-29T07:53:40;4.45;;;2.10;;
54157;SDS011;40065;49.894;10.358;2023-07-29T07:58:41;3.35;;;1.70;;
54157;SDS011;40065;49.894;10.358;2023-07-29T08:03:43;7.90;;;2.30;;
54157;SDS011;40065;49.894;10.358;2023-07-29T08:08:45;3.10;;;2.00;;
54157;SDS011;40065;49.894;10.358;2023-07-29T08:13:47;3.95;;;1.90;;
54157;SDS011;40065;49.894;10.358;2023-07-29T08:18:49;3.03;;;1.75;;
54157;SDS011;40065;49.894;10.358;2023-07-29T08:23:51;3.17;;;1.90;;
54157;SDS011;40065;49.894;10.358;2023-07-29T08:28:52;4.55;;;2.17;;
54157;SDS011;40065;49.894;10.358;2023-07-29T08:33:55;6.05;;;1.90;;
54157;SDS011;40065;49.894;10.358;2023-07-29T08:38:57;4.35;;;1.65;;
54157;SDS011;40065;49.894;10.358;2023-07-29T08:44:01;2.70;;;1.45;;
54157;SDS011;40065;49.894;10.358;2023-07-29T08:49:16;2.58;;;1.35;;
54157;SDS011;40065;49.894;10.358;2023-07-29T08:54:24;1.40;;;0.80;;
54157;SDS011;40065;49.894;10.358;2023-07-29T08:59:27;2.58;;;0.95;;
54157;SDS011;40065;49.894;10.358;2023-07-29T09:04:30;1.98;;;1.10;;
54157;SDS011;40065;49.894;10.358;2023-07-29T09:09:32;2.47;;;1.25;;
54157;SDS011;40065;49.894;10.358;2023-07-29T09:14:34;2.95;;;1.23;;
54157;SDS011;40065;49.894;10.358;2023-07-29T09:19:36;6.38;;;1.55;;
54157;SDS011;40065;49.894;10.358;2023-07-29T09:24:37;2.10;;;1.42;;
54157;SDS011;40065;49.894;10.358;2023-07-29T09:29:39;2.80;;;1.20;;
54157;SDS011;40065;49.894;10.358;2023-07-29T09:34:41;2.20;;;0.75;;
54157;SDS011;40065;49.894;10.358;2023-07-29T09:39:49;1.60;;;0.75;;
54157;SDS011;40065;49.894;10.358;2023-07-29T09:44:51;2.22;;;0.65;;
54157;SDS011;40065;49.894;10.358;2023-07-29T09:49:54;0.90;;;0.50;;
54157;SDS011;40065;49.894;10.358;2023-07-29T09:54:56;1.15;;;0.60;;
54157;SDS011;40065;49.894;10.358;2023-07-29T09:59:58;2.05;;;0.90;;
54157;SDS011;40065;49.894;10.358;2023-07-29T10:05:00;2.03;;;0.80;;
54157;SDS011;40065;49.894;10.358;2023-07-29T10:10:06;2.13;;;0.83;;
54157;SDS011;40065;49.894;10.358;2023-07-29T10:15:09;1.17;;;0.70;;
54157;SDS011;40065;49.894;10.358;2023-07-29T10:20:11;3.50;;;0.88;;
54157;SDS011;40065;49.894;10.358;2023-07-29T10:25:18;2.45;;;0.60;;
54157;SDS011;40065;49.894;10.358;2023-07-29T10:30:24;1.77;;;0.70;;
54157;SDS011;40065;49.894;10.358;2023-07-29T10:35:26;0.90;;;0.60;;
54157;SDS011;40065;49.894;10.358;2023-07-29T10:46:21;1.17;;;0.68;;
54157;SDS011;40065;49.894;10.358;2023-07-29T10:56:42;0.82;;;0.50;;
54157;SDS011;40065;49.894;10.358;2023-07-29T11:01:54;1.20;;;0.65;;
54157;SDS011;40065;49.894;10.358;2023-07-29T11:17:53;1.30;;;0.70;;
54157;SDS011;40065;49.894;10.358;2023-07-29T11:23:03;1.58;;;1.00;;
54157;SDS011;40065;49.894;10.358;2023-07-29T11:28:05;1.63;;;1.00;;
54157;SDS011;40065;49.894;10.358;2023-07-29T11:33:07;1.60;;;0.80;;
54157;SDS011;40065;49.894;10.358;2023-07-29T11:38:14;2.83;;;1.10;;
54157;SDS011;40065;49.894;10.358;2023-07-29T11:43:19;2.55;;;1.10;;
54157;SDS011;40065;49.894;10.358;2023-07-29T11:48:28;3.25;;;1.20;;
54157;SDS011;40065;49.894;10.358;2023-07-29T11:53:33;2.67;;;1.30;;
54157;SDS011;40065;49.894;10.358;2023-07-29T11:58:36;1.95;;;1.40;;
54157;SDS011;40065;49.894;10.358;2023-07-29T12:03:38;2.47;;;1.20;;
54157;SDS011;40065;49.894;10.358;2023-07-29T12:08:43;1.95;;;1.20;;
54157;SDS011;40065;49.894;10.358;2023-07-29T12:13:46;5.22;;;1.42;;
54157;SDS011;40065;49.894;10.358;2023-07-29T12:18:49;1.33;;;0.90;;
54157;SDS011;40065;49.894;10.358;2023-07-29T12:23:52;4.68;;;1.30;;
54157;SDS011;40065;49.894;10.358;2023-07-29T12:28:53;2.17;;;1.00;;
54157;SDS011;40065;49.894;10.358;2023-07-29T12:33:55;1.92;;;1.00;;
54157;SDS011;40065;49.894;10.358;2023-07-29T12:39:01;3.72;;;1.20;;
54157;SDS011;40065;49.894;10.358;2023-07-29T12:44:03;2.92;;;1.10;;
54157;SDS011;40065;49.894;10.358;2023-07-29T12:49:05;2.07;;;0.83;;
54157;SDS011;40065;49.894;10.358;2023-07-29T12:54:07;1.95;;;1.10;;
54157;SDS011;40065;49.894;10.358;2023-07-29T12:59:09;2.10;;;1.07;;
54157;SDS011;40065;49.894;10.358;2023-07-29T13:04:11;3.15;;;1.13;;
54157;SDS011;40065;49.894;10.358;2023-07-29T13:09:13;1.87;;;1.23;;
54157;SDS011;40065;49.894;10.358;2023-07-29T13:14:15;1.42;;;1.15;;
54157;SDS011;40065;49.894;10.358;2023-07-29T13:19:20;2.38;;;1.30;;
54157;SDS011;40065;49.894;10.358;2023-07-29T13:24:22;1.90;;;1.08;;
54157;SDS011;40065;49.894;10.358;2023-07-29T13:29:24;2.53;;;1.25;;
54157;SDS011;40065;49.894;10.358;2023-07-29T13:34:26;2.35;;;1.35;;
54157;SDS011;40065;49.894;10.358;2023-07-29T13:39:28;3.40;;;1.40;;
54157;SDS011;40065;49.894;10.358;2023-07-29T13:44:29;3.85;;;1.08;;
54157;SDS011;40065;49.894;10.358;2023-07-29T13:49:31;1.27;;;0.75;;
54157;SDS011;40065;49.894;10.358;2023-07-29T13:54:33;1.95;;;0.93;;
54157;SDS011;40065;49.894;10.358;2023-07-29T13:59:35;3.13;;;1.25;;
54157;SDS011;40065;49.894;10.358;2023-07-29T14:04:39;1.70;;;1.10;;
54157;SDS011;40065;49.894;10.358;2023-07-29T14:09:41;2.05;;;0.90;;
54157;SDS011;40065;49.894;10.358;2023-07-29T14:19:46;1.52;;;0.90;;
54157;SDS011;40065;49.894;10.358;2023-07-29T14:24:47;1.70;;;0.85;;
54157;SDS011;40065;49.894;10.358;2023-07-29T14:29:49;3.22;;;0.88;;
54157;SDS011;40065;49.894;10.358;2023-07-29T14:34:51;2.28;;;0.90;;
54157;SDS011;40065;49.894;10.358;2023-07-29T14:39:53;2.80;;;0.80;;
54157;SDS011;40065;49.894;10.358;2023-07-29T14:44:55;4.50;;;1.10;;
54157;SDS011;40065;49.894;10.358;2023-07-29T14:49:57;1.95;;;1.10;;
54157;SDS011;40065;49.894;10.358;2023-07-29T14:54:59;2.03;;;1.13;;
54157;SDS011;40065;49.894;10.358;2023-07-29T15:00:01;2.40;;;1.10;;
54157;SDS011;40065;49.894;10.358;2023-07-29T15:05:05;2.30;;;1.17;;
54157;SDS011;40065;49.894;10.358;2023-07-29T15:10:07;1.52;;;0.95;;
54157;SDS011;40065;49.894;10.358;2023-07-29T15:15:10;2.88;;;1.08;;
54157;SDS011;40065;49.894;10.358;2023-07-29T15:20:13;4.30;;;1.60;;
54157;SDS011;40065;49.894;10.358;2023-07-29T15:25:14;2.35;;;0.95;;
54157;SDS011;40065;49.894;10.358;2023-07-29T15:30:17;2.42;;;1.10;;
54157;SDS011;40065;49.894;10.358;2023-07-29T15:35:21;1.77;;;0.90;;
54157;SDS011;40065;49.894;10.358;2023-07-29T15:40:23;2.50;;;1.25;;
54157;SDS011;40065;49.894;10.358;2023-07-29T15:45:25;2.10;;;1.00;;
54157;SDS011;40065;49.894;10.358;2023-07-29T15:50:27;1.90;;;0.95;;
54157;SDS011;40065;49.894;10.358;2023-07-29T15:55:30;2.63;;;1.07;;
54157;SDS011;40065;49.894;10.358;2023-07-29T16:00:31;2.25;;;1.20;;
54157;SDS011;40065;49.894;10.358;2023-07-29T16:05:34;7.10;;;1.25;;
54157;SDS011;40065;49.894;10.358;2023-07-29T16:10:36;1.75;;;0.90;;
54157;SDS011;40065;49.894;10.358;2023-07-29T16:15:38;2.70;;;1.27;;
54157;SDS011;40065;49.894;10.358;2023-07-29T16:20:40;2.40;;;1.17;;
54157;SDS011;40065;49.894;10.358;2023-07-29T16:25:42;4.45;;;1.17;;
54157;SDS011;40065;49.894;10.358;2023-07-29T16:30:44;3.70;;;1.20;;
54157;SDS011;40065;49.894;10.358;2023-07-29T16:35:46;5.10;;;1.30;;
54157;SDS011;40065;49.894;10.358;2023-07-29T16:40:47;2.90;;;1.27;;
54157;SDS011;40065;49.894;10.358;2023-07-29T16:46:08;3.15;;;1.30;;
54157;SDS011;40065;49.894;10.358;2023-07-29T16:51:10;3.05;;;1.40;;
54157;SDS011;40065;49.894;10.358;2023-07-29T16:56:12;4.40;;;1.55;;
54157;SDS011;40065;49.894;10.358;2023-07-29T17:01:14;3.50;;;1.30;;
54157;SDS011;40065;49.894;10.358;2023-07-29T17:06:16;2.00;;;1.20;;
54157;SDS011;40065;49.894;10.358;2023-07-29T17:11:18;2.08;;;1.10;;
54157;SDS011;40065;49.894;10.358;2023-07-29T17:16:21;1.50;;;0.97;;
54157;SDS011;40065;49.894;10.358;2023-07-29T17:21:23;1.67;;;1.10;;
54157;SDS011;40065;49.894;10.358;2023-07-29T17:26:25;2.63;;;1.20;;
54157;SDS011;40065;49.894;10.358;2023-07-29T17:31:27;2.22;;;1.25;;
54157;SDS011;40065;49.894;10.358;2023-07-29T17:36:29;2.35;;;1.05;;
54157;SDS011;40065;49.894;10.358;2023-07-29T17:41:31;1.75;;;1.10;;
54157;SDS011;40065;49.894;10.358;2023-07-29T17:46:33;2.33;;;1.30;;
54157;SDS011;40065;49.894;10.358;2023-07-29T17:51:36;4.33;;;1.50;;
54157;SDS011;40065;49.894;10.358;2023-07-29T17:56:38;2.50;;;1.52;;
54157;SDS011;40065;49.894;10.358;2023-07-29T18:01:40;2.50;;;1.65;;
54157;SDS011;40065;49.894;10.358;2023-07-29T18:06:42;2.88;;;1.40;;
54157;SDS011;40065;49.894;10.358;2023-07-29T18:11:44;2.10;;;1.33;;
54157;SDS011;40065;49.894;10.358;2023-07-29T18:16:46;2.53;;;1.10;;
54157;SDS011;40065;49.894;10.358;2023-07-29T18:21:48;1.65;;;1.10;;
54157;SDS011;40065;49.894;10.358;2023-07-29T18:26:50;2.38;;;1.20;;
54157;SDS011;40065;49.894;10.358;2023-07-29T18:31:52;1.60;;;1.08;;
54157;SDS011;40065;49.894;10.358;2023-07-29T18:36:53;1.95;;;1.17;;
54157;SDS011;40065;49.894;10.358;2023-07-29T18:41:55;1.80;;;1.10;;
54157;SDS011;40065;49.894;10.358;2023-07-29T18:46:57;2.65;;;1.35;;
54157;SDS011;40065;49.894;10.358;2023-07-29T18:51:59;1.88;;;1.05;;
54157;SDS011;40065;49.894;10.358;2023-07-29T18:57:01;2.00;;;1.20;;
54157;SDS011;40065;49.894;10.358;2023-07-29T19:02:03;4.35;;;1.23;;
54157;SDS011;40065;49.894;10.358;2023-07-29T19:07:06;1.80;;;1.07;;
54157;SDS011;40065;49.894;10.358;2023-07-29T19:12:08;2.88;;;1.27;;
54157;SDS011;40065;49.894;10.358;2023-07-29T19:17:10;2.38;;;1.35;;
54157;SDS011;40065;49.894;10.358;2023-07-29T19:22:12;1.65;;;0.95;;
54157;SDS011;40065;49.894;10.358;2023-07-29T19:27:14;2.28;;;1.40;;
54157;SDS011;40065;49.894;10.358;2023-07-29T19:32:16;6.13;;;1.98;;
54157;SDS011;40065;49.894;10.358;2023-07-29T19:37:19;1.70;;;1.10;;
54157;SDS011;40065;49.894;10.358;2023-07-29T19:42:22;3.55;;;1.30;;
54157;SDS011;40065;49.894;10.358;2023-07-29T19:47:24;3.08;;;1.30;;
54157;SDS011;40065;49.894;10.358;2023-07-29T19:52:26;2.17;;;1.35;;
54157;SDS011;40065;49.894;10.358;2023-07-29T19:57:28;3.50;;;1.67;;
54157;SDS011;40065;49.894;10.358;2023-07-29T20:02:30;2.95;;;1.60;;
54157;SDS011;40065;49.894;10.358;2023-07-29T20:07:33;4.68;;;1.73;;
54157;SDS011;40065;49.894;10.358;2023-07-29T20:12:35;2.70;;;1.88;;
54157;SDS011;40065;49.894;10.358;2023-07-29T20:17:36;2.47;;;1.60;;
54157;SDS011;40065;49.894;10.358;2023-07-29T20:22:38;2.78;;;1.88;;
54157;SDS011;40065;49.894;10.358;2023-07-29T20:27:40;2.78;;;1.73;;
54157;SDS011;40065;49.894;10.358;2023-07-29T20:32:42;2.65;;;1.63;;
54157;SDS011;40065;49.894;10.358;2023-07-29T20:37:44;3.25;;;2.53;;
54157;SDS011;40065;49.894;10.358;2023-07-29T20:42:46;4.35;;;3.42;;
54157;SDS011;40065;49.894;10.358;2023-07-29T20:47:48;3.30;;;2.53;;
54157;SDS011;40065;49.894;10.358;2023-07-29T20:52:49;3.72;;;2.15;;
54157;SDS011;40065;49.894;10.358;2023-07-29T20:57:52;3.13;;;2.13;;
54157;SDS011;40065;49.894;10.358;2023-07-29T21:02:54;2.97;;;2.10;;
54157;SDS011;40065;49.894;10.358;2023-07-29T21:07:57;5.10;;;2.70;;
54157;SDS011;40065;49.894;10.358;2023-07-29T21:12:59;2.70;;;2.20;;
54157;SDS011;40065;49.894;10.358;2023-07-29T21:18:01;3.47;;;2.25;;
54157;SDS011;40065;49.894;10.358;2023-07-29T21:23:03;5.72;;;2.10;;
54157;SDS011;40065;49.894;10.358;2023-07-29T21:28:05;3.75;;;2.30;;
54157;SDS011;40065;49.894;10.358;2023-07-29T21:33:08;4.70;;;2.92;;
54157;SDS011;40065;49.894;10.358;2023-07-29T21:38:10;7.65;;;1.80;;
54157;SDS011;40065;49.894;10.358;2023-07-29T21:43:29;2.47;;;1.67;;
54157;SDS011;40065;49.894;10.358;2023-07-29T21:48:31;3.35;;;2.20;;
54157;SDS011;40065;49.894;10.358;2023-07-29T21:53:33;3.78;;;1.80;;
54157;SDS011;40065;49.894;10.358;2023-07-29T21:58:35;3.35;;;1.80;;
54157;SDS011;40065;49.894;10.358;2023-07-29T22:03:37;3.20;;;2.00;;
54157;SDS011;40065;49.894;10.358;2023-07-29T22:08:39;3.53;;;1.70;;
54157;SDS011;40065;49.894;10.358;2023-07-29T22:13:40;3.67;;;2.35;;
54157;SDS011;40065;49.894;10.358;2023-07-29T22:18:42;3.70;;;2.03;;
54157;SDS011;40065;49.894;10.358;2023-07-29T22:23:44;3.75;;;2.08;;
54157;SDS011;40065;49.894;10.358;2023-07-29T22:29:00;3.65;;;2.28;;
54157;SDS011;40065;49.894;10.358;2023-07-29T22:34:02;4.80;;;2.20;;
54157;SDS011;40065;49.894;10.358;2023-07-29T22:39:04;2.75;;;1.73;;
54157;SDS011;40065;49.894;10.358;2023-07-29T22:44:06;3.95;;;2.13;;
54157;SDS011;40065;49.894;10.358;2023-07-29T22:49:08;3.85;;;2.40;;
54157;SDS011;40065;49.894;10.358;2023-07-29T22:54:10;3.75;;;2.45;;
54157;SDS011;40065;49.894;10.358;2023-07-29T22:59:12;3.38;;;2.30;;
54157;SDS011;40065;49.894;10.358;2023-07-29T23:04:14;3.08;;;1.80;;
54157;SDS011;40065;49.894;10.358;2023-07-29T23:09:16;3.40;;;2.10;;
54157;SDS011;40065;49.894;10.358;2023-07-29T23:14:18;2.55;;;2.00;;
54157;SDS011;40065;49.894;10.358;2023-07-29T23:19:20;4.38;;;2.05;;
54157;SDS011;40065;49.894;10.358;2023-07-29T23:24:22;3.00;;;2.00;;
54157;SDS011;40065;49.894;10.358;2023-07-29T23:29:24;6.15;;;2.10;;
54157;SDS011;40065;49.894;10.358;2023-07-29T23:34:26;3.25;;;2.00;;
54157;SDS011;40065;49.894;10.358;2023-07-29T23:39:28;3.90;;;2.00;;
54157;SDS011;40065;49.894;10.358;2023-07-29T23:44:30;3.10;;;2.10;;
54157;SDS011;40065;49.894;10.358;2023-07-29T23:49:31;3.38;;;1.90;;
54157;SDS011;40065;49.894;10.358;2023-07-29T23:54:33;2.83;;;1.83;;
54157;SDS011;40065;49.894;10.358;2023-07-29T23:59:35;2.95;;;1.90;;
